M I D A S
Marine Information and Data Acquisition System
Tripno 1745 of the Zeeleeuw from 2009-08-04 06:22:04 to 2009-08-04 17:50:58
Back to CruiseResearch ActivitiesStationsMapUnderway DataData graphs

EquipmentUnitsComments
TimeDGPSUTC
LatitudeDGPSDM.mWGS84
LongitudeDGPSDM.mWGS84
SpeedMeteo Stationm/sRelative wind speed
DirectionMeteo StationdegRelative wind direction
TemperatureMeteo Stationdeg CelciusAir temperature
PressureMeteo StationPaAtmospheric pressure
HumidityMeteo Station%Relative humidity
Missing or incorrect values are displayed as -999
Metereological data collected by the RV Zeeleeuw from 2009-08-04 06:21:46 to 2009-08-04 18:01:26
                                                                                    Next 1000 lines
Time Latitude Longitude Speed Direction Temperature Pressure Humidity
2009-08-04 06:21:56 51°13.692 2°55.735 3.7 26 16.5 101850 47
2009-08-04 06:22:01 51°13.693 2°55.734 3.4 34 16.5 101850 49
2009-08-04 06:22:06 51°13.693 2°55.733 3.9 31 16.5 101850 49
2009-08-04 06:22:10 51°13.693 2°55.732 4 32 16.5 101850 48
2009-08-04 06:22:16 51°13.694 2°55.732 3.9 31 16.5 101850 48
2009-08-04 06:22:21 51°13.694 2°55.732 3.4 37 16.5 101850 48
2009-08-04 06:22:25 51°13.695 2°55.732 2.3 29 16.5 101850 48
2009-08-04 06:22:30 51°13.696 2°55.732 2.5 35 16.5 101850 47
2009-08-04 06:22:35 51°13.697 2°55.733 3.1 35 16.5 101850 47
2009-08-04 06:22:40 51°13.698 2°55.733 2.8 31 16.5 101850 47
2009-08-04 06:22:45 51°13.699 2°55.734 2 32 16.5 101850 47
2009-08-04 06:22:50 51°13.701 2°55.734 2.6 34 16.5 101860 48
2009-08-04 06:22:55 51°13.703 2°55.734 2.5 45 16.5 101860 48
2009-08-04 06:23:00 51°13.705 2°55.734 3.7 26 16.5 101860 47
2009-08-04 06:23:05 51°13.707 2°55.734 3.9 42 16.5 101860 47
2009-08-04 06:23:10 51°13.709 2°55.734 3.5 38 16.5 101860 47
2009-08-04 06:23:14 51°13.711 2°55.734 3.1 51 16.5 101860 47
2009-08-04 06:23:19 51°13.713 2°55.734 2.3 25 16.5 101860 47
2009-08-04 06:23:25 51°13.716 2°55.734 2.3 53 16.5 101860 47
2009-08-04 06:23:30 51°13.719 2°55.733 2.6 27 16.5 101860 48
2009-08-04 06:23:34 51°13.721 2°55.732 3.2 59 16.5 101860 48
2009-08-04 06:23:39 51°13.724 2°55.731 2.7 21 16.5 101860 48
2009-08-04 06:23:45 51°13.728 2°55.728 2.6 52 16.5 101860 48
2009-08-04 06:23:50 51°13.731 2°55.726 1.7 26 16.5 101860 47
2009-08-04 06:23:56 51°13.736 2°55.722 1 56 16.5 101860 47
2009-08-04 06:24:01 51°13.74 2°55.718 2.2 27 16.5 101860 48
2009-08-04 06:24:06 51°13.745 2°55.714 1.7 58 16.5 101860 48
2009-08-04 06:24:10 51°13.749 2°55.711 1.7 22 16.5 101860 48
2009-08-04 06:24:15 51°13.754 2°55.706 1.2 51 16.5 101860 48
2009-08-04 06:24:20 51°13.759 2°55.701 1.5 27 16.6 101860 48
2009-08-04 06:24:25 51°13.765 2°55.696 1.1 310 16.6 101860 48
2009-08-04 06:24:30 51°13.771 2°55.691 1.1 270 16.6 101860 48
2009-08-04 06:24:35 51°13.777 2°55.685 1 58 16.6 101860 48
2009-08-04 06:24:40 51°13.783 2°55.68 0.6 20 16.6 101860 48
2009-08-04 06:24:45 51°13.79 2°55.674 0.5 52 16.6 101860 48
2009-08-04 06:24:50 51°13.797 2°55.668 0.5 29 16.6 101860 48
2009-08-04 06:24:55 51°13.804 2°55.661 0.7 56 16.6 101860 48
2009-08-04 06:25:00 51°13.812 2°55.655 0.6 19 16.6 101860 48
2009-08-04 06:25:05 51°13.82 2°55.649 0.7 53 16.6 101860 48
2009-08-04 06:25:10 51°13.827 2°55.643 0.7 28 16.6 101850 48
2009-08-04 06:25:14 51°13.834 2°55.638 0.4 54 16.6 101850 48
2009-08-04 06:25:20 51°13.844 2°55.631 0.3 28 16.7 101860 48
2009-08-04 06:25:25 51°13.852 2°55.624 0.6 59 16.7 101860 48
2009-08-04 06:25:29 51°13.859 2°55.619 0.4 22 16.7 101860 48
2009-08-04 06:25:34 51°13.867 2°55.612 0.2 58 16.7 101860 48
2009-08-04 06:25:39 51°13.875 2°55.605 0.5 19 16.7 101860 48
2009-08-04 06:25:45 51°13.885 2°55.597 0.5 40 16.7 101860 48
2009-08-04 06:25:49 51°13.892 2°55.592 0.5 40 16.7 101860 48
2009-08-04 06:25:54 51°13.901 2°55.584 0.6 33 16.7 101860 48
2009-08-04 06:25:59 51°13.909 2°55.578 0.3 33 16.7 101860 49
2009-08-04 06:26:04 51°13.918 2°55.571 0.2 33 16.7 101860 49
2009-08-04 06:26:09 51°13.927 2°55.564 0.1 33 16.7 101850 49
2009-08-04 06:26:14 51°13.936 2°55.557 0.1 33 16.7 101850 49
2009-08-04 06:26:18 51°13.943 2°55.551 0.1 33 16.8 101860 48
2009-08-04 06:26:24 51°13.953 2°55.543 0.1 33 16.8 101860 48
2009-08-04 06:26:29 51°13.962 2°55.536 0.1 33 16.8 101860 48
2009-08-04 06:26:34 51°13.971 2°55.53 0.1 33 16.8 101860 48
2009-08-04 06:26:38 51°13.976 2°55.524 0.4 24 16.8 101860 49
2009-08-04 06:26:43 51°13.984 2°55.517 0.5 60 16.8 101860 49
2009-08-04 06:26:48 51°13.994 2°55.51 0.4 21 16.8 101860 49
2009-08-04 06:26:54 51°14.006 2°55.502 0.2 57 16.8 101860 49
2009-08-04 06:26:58 51°14.014 2°55.496 0.6 253 16.9 101860 49
2009-08-04 06:27:03 51°14.023 2°55.489 0.4 306 16.9 101860 49
2009-08-04 06:27:08 51°14.033 2°55.482 0.3 24 16.9 101860 49
2009-08-04 06:27:13 51°14.043 2°55.474 0.2 307 16.9 101860 49
2009-08-04 06:27:18 51°14.053 2°55.467 0.1 28 16.9 101860 49
2009-08-04 06:27:23 51°14.063 2°55.46 0.3 302 16.9 101860 49
2009-08-04 06:27:28 51°14.073 2°55.452 0.6 255 16.9 101860 49
2009-08-04 06:27:33 51°14.083 2°55.445 0.3 305 16.9 101860 49
2009-08-04 06:27:38 51°14.093 2°55.437 0.3 255 17 101860 49
2009-08-04 06:27:43 51°14.103 2°55.43 0.3 302 17 101860 49
2009-08-04 06:27:48 51°14.113 2°55.422 0.2 26 17 101860 50
2009-08-04 06:27:53 51°14.122 2°55.414 0.1 305 17 101860 50
2009-08-04 06:27:57 51°14.13 2°55.407 0.1 27 17 101860 49
2009-08-04 06:28:02 51°14.139 2°55.399 0.2 303 17 101860 49
2009-08-04 06:28:07 51°14.149 2°55.39 0.5 20 17 101860 49
2009-08-04 06:28:12 51°14.158 2°55.38 0.5 311 17 101860 49
2009-08-04 06:28:17 51°14.167 2°55.371 0.4 22 17 101860 49
2009-08-04 06:28:22 51°14.176 2°55.361 0.8 300 17 101860 49
2009-08-04 06:28:27 51°14.185 2°55.35 1 29 17.1 101860 48
2009-08-04 06:28:33 51°14.196 2°55.338 1 304 17.1 101860 48
2009-08-04 06:28:37 51°14.203 2°55.329 0.8 25 17.1 101860 48
2009-08-04 06:28:42 51°14.211 2°55.317 0.8 300 17.1 101860 48
2009-08-04 06:28:47 51°14.22 2°55.306 1 247 17.1 101860 49
2009-08-04 06:28:53 51°14.23 2°55.292 1.8 310 17.1 101860 49
2009-08-04 06:28:57 51°14.236 2°55.282 2.4 255 17.1 101850 49
2009-08-04 06:29:02 51°14.244 2°55.269 2.3 305 17.1 101850 49
2009-08-04 06:29:07 51°14.252 2°55.256 3.1 28 17.1 101860 49
2009-08-04 06:29:13 51°14.262 2°55.24 2.7 308 17.1 101860 49
2009-08-04 06:29:17 51°14.268 2°55.229 2.3 320 17.2 101860 49
2009-08-04 06:29:22 51°14.275 2°55.215 1.9 302 17.2 101860 49
2009-08-04 06:29:27 51°14.283 2°55.201 2.7 26 17.2 101860 48
2009-08-04 06:29:32 51°14.29 2°55.187 3 309 17.2 101860 48
2009-08-04 06:29:37 51°14.298 2°55.172 3.2 23 17.2 101860 49
2009-08-04 06:29:42 51°14.305 2°55.157 2.4 304 17.2 101860 49
2009-08-04 06:29:47 51°14.312 2°55.142 3.4 19 17.2 101850 49
2009-08-04 06:29:52 51°14.319 2°55.127 2.5 303 17.2 101850 49
2009-08-04 06:29:57 51°14.326 2°55.112 1.9 22 17.2 101860 49
2009-08-04 06:30:02 51°14.334 2°55.097 2.4 310 17.2 101860 49
2009-08-04 06:30:07 51°14.341 2°55.082 2.6 21 17.2 101860 49
2009-08-04 06:30:12 51°14.349 2°55.067 2.5 309 17.2 101860 49
2009-08-04 06:30:17 51°14.356 2°55.051 1.9 28 17.2 101860 48
2009-08-04 06:30:22 51°14.364 2°55.035 3.9 309 17.2 101860 48
2009-08-04 06:30:27 51°14.37 2°55.019 4.1 27 17.2 101860 48
2009-08-04 06:30:33 51°14.378 2°54.999 3.3 307 17.2 101860 48
2009-08-04 06:30:37 51°14.383 2°54.985 4.6 20 17.2 101860 48
2009-08-04 06:30:42 51°14.388 2°54.968 3.9 307 17.2 101860 48
2009-08-04 06:30:47 51°14.393 2°54.949 3.7 245 17.2 101860 47
2009-08-04 06:30:53 51°14.398 2°54.927 5.1 300 17.2 101860 47
2009-08-04 06:30:57 51°14.4 2°54.911 6.1 242 17.3 101860 49
2009-08-04 06:31:02 51°14.403 2°54.892 6.1 303 17.3 101860 49
2009-08-04 06:31:07 51°14.406 2°54.872 6.3 21 17.3 101850 47
2009-08-04 06:31:13 51°14.407 2°54.848 6.2 307 17.3 101850 47
2009-08-04 06:31:17 51°14.407 2°54.831 6.5 23 17.3 101850 47
2009-08-04 06:31:22 51°14.407 2°54.81 7.2 307 17.3 101850 47
2009-08-04 06:31:27 51°14.407 2°54.789 10.3 22 17.3 101850 48
2009-08-04 06:31:32 51°14.406 2°54.768 7.3 302 17.3 101850 48
2009-08-04 06:31:37 51°14.404 2°54.746 8.4 22 17.3 101850 48
2009-08-04 06:31:42 51°14.401 2°54.724 8.2 308 17.3 101850 48
2009-08-04 06:31:47 51°14.396 2°54.702 9 26 17.3 101850 47
2009-08-04 06:31:52 51°14.392 2°54.68 9.4 304 17.3 101850 47
2009-08-04 06:31:57 51°14.387 2°54.658 9 24 17.3 101850 48
2009-08-04 06:32:02 51°14.381 2°54.635 12.3 303 17.3 101850 48
2009-08-04 06:32:07 51°14.375 2°54.613 9.9 28 17.3 101840 47
2009-08-04 06:32:12 51°14.369 2°54.59 10.7 302 17.3 101840 47
2009-08-04 06:32:17 51°14.363 2°54.566 9 28 17.3 101840 48
2009-08-04 06:32:22 51°14.356 2°54.543 10.4 280 17.3 101840 48
2009-08-04 06:32:27 51°14.35 2°54.519 12 22 17.3 101830 47
2009-08-04 06:32:32 51°14.343 2°54.495 12.1 309 17.3 101830 47
2009-08-04 06:32:37 51°14.337 2°54.471 9.4 26 17.3 101830 48
2009-08-04 06:32:42 51°14.33 2°54.447 10.5 308 17.3 101830 48
2009-08-04 06:32:47 51°14.323 2°54.423 9.6 25 17.3 101830 47
2009-08-04 06:32:53 51°14.315 2°54.394 10.9 303 17.3 101830 47
2009-08-04 06:32:57 51°14.31 2°54.375 10.7 21 17.3 101830 47
2009-08-04 06:33:02 51°14.303 2°54.351 10.5 306 17.3 101830 47
2009-08-04 06:33:07 51°14.296 2°54.327 11.7 23 17.3 101830 48
2009-08-04 06:33:13 51°14.287 2°54.298 10 302 17.3 101830 48
2009-08-04 06:33:17 51°14.282 2°54.278 10.3 27 17.2 101840 47
2009-08-04 06:33:22 51°14.275 2°54.254 12.4 280 17.2 101840 47
2009-08-04 06:33:27 51°14.268 2°54.23 9.5 25 17.2 101830 47
2009-08-04 06:33:33 51°14.259 2°54.201 8.4 302 17.2 101830 47
2009-08-04 06:33:37 51°14.253 2°54.181 11.7 27 17.2 101830 48
2009-08-04 06:33:42 51°14.246 2°54.157 8.5 301 17.2 101830 48
2009-08-04 06:33:47 51°14.239 2°54.133 8.8 26 17.2 101830 47
2009-08-04 06:33:53 51°14.23 2°54.105 9 303 17.2 101830 47
2009-08-04 06:33:57 51°14.224 2°54.085 9.1 25 17.1 101830 47
2009-08-04 06:34:02 51°14.217 2°54.061 8.1 307 17.1 101830 47
2009-08-04 06:34:07 51°14.21 2°54.037 10.9 22 17.2 101820 48
2009-08-04 06:34:12 51°14.202 2°54.013 9.3 302 17.2 101820 48
2009-08-04 06:34:17 51°14.195 2°53.989 9.5 28 17.2 101830 48
2009-08-04 06:34:22 51°14.188 2°53.965 9.8 280 17.2 101830 48
2009-08-04 06:34:27 51°14.181 2°53.94 8.9 26 17.2 101830 48
2009-08-04 06:34:32 51°14.174 2°53.916 10.9 300 17.2 101830 48
2009-08-04 06:34:37 51°14.166 2°53.892 10.6 26 17.1 101830 47
2009-08-04 06:34:42 51°14.159 2°53.868 10.7 304 17.1 101830 47
2009-08-04 06:34:47 51°14.152 2°53.844 9.5 26 17.1 101830 47
2009-08-04 06:34:53 51°14.143 2°53.814 10.3 306 17.1 101830 47
2009-08-04 06:34:57 51°14.137 2°53.795 10.7 26 17.1 101830 48
2009-08-04 06:35:02 51°14.13 2°53.77 10.4 302 17.1 101830 48
2009-08-04 06:35:07 51°14.123 2°53.746 8 23 17 101830 47
2009-08-04 06:35:13 51°14.115 2°53.717 8.1 303 17 101830 47
2009-08-04 06:35:17 51°14.109 2°53.697 10.7 20 17 101830 48
2009-08-04 06:35:22 51°14.102 2°53.673 9.6 284 17 101830 48
2009-08-04 06:35:27 51°14.095 2°53.649 10.7 27 17 101830 48
2009-08-04 06:35:33 51°14.086 2°53.619 8.7 303 17 101830 48
2009-08-04 06:35:37 51°14.08 2°53.6 8.6 21 17 101840 47
2009-08-04 06:35:42 51°14.073 2°53.576 10.6 309 17 101840 47
2009-08-04 06:35:47 51°14.066 2°53.551 10.2 21 17 101830 48
2009-08-04 06:35:53 51°14.057 2°53.522 12.6 310 17 101830 48
2009-08-04 06:35:57 51°14.051 2°53.503 13.6 20 17 101840 48
2009-08-04 06:36:02 51°14.044 2°53.478 10.1 305 17 101840 48
2009-08-04 06:36:07 51°14.037 2°53.454 10.1 25 16.9 101840 48
2009-08-04 06:36:12 51°14.031 2°53.429 9.6 304 16.9 101840 48
2009-08-04 06:36:17 51°14.023 2°53.405 9.6 22 16.9 101830 48
2009-08-04 06:36:22 51°14.016 2°53.38 10.5 284 16.9 101830 48
2009-08-04 06:36:27 51°14.009 2°53.356 10 19 16.9 101830 48
2009-08-04 06:36:32 51°14.002 2°53.331 8.8 304 16.9 101830 48
2009-08-04 06:36:37 51°13.995 2°53.306 10.2 25 16.9 101830 48
2009-08-04 06:36:42 51°13.988 2°53.282 9.8 302 16.9 101830 48
2009-08-04 06:36:47 51°13.981 2°53.257 11.4 20 16.9 101840 48
2009-08-04 06:36:52 51°13.974 2°53.233 11.1 302 16.9 101840 48
2009-08-04 06:36:57 51°13.967 2°53.208 9.6 27 17 101840 49
2009-08-04 06:37:02 51°13.96 2°53.184 9.1 308 17 101840 49
2009-08-04 06:37:07 51°13.953 2°53.159 12 23 16.9 101840 48
2009-08-04 06:37:13 51°13.945 2°53.129 12.1 306 16.9 101840 48
2009-08-04 06:37:17 51°13.939 2°53.109 11.9 21 16.9 101840 47
2009-08-04 06:37:22 51°13.932 2°53.085 12.3 283 16.9 101840 47
2009-08-04 06:37:27 51°13.926 2°53.06 13.1 22 16.9 101830 48
2009-08-04 06:37:33 51°13.917 2°53.03 11.5 309 16.9 101830 48
2009-08-04 06:37:37 51°13.912 2°53.01 9.2 25 16.9 101840 48
2009-08-04 06:37:42 51°13.905 2°52.985 11.4 309 16.9 101840 48
2009-08-04 06:37:47 51°13.898 2°52.96 9.8 25 16.9 101830 48
2009-08-04 06:37:53 51°13.89 2°52.931 8.5 310 16.9 101830 48
2009-08-04 06:37:57 51°13.884 2°52.911 10.8 21 16.9 101830 48
2009-08-04 06:38:02 51°13.877 2°52.886 11.5 303 16.9 101830 48
2009-08-04 06:38:07 51°13.871 2°52.861 12.4 29 16.9 101830 48
2009-08-04 06:38:13 51°13.862 2°52.831 12.4 309 16.9 101830 48
2009-08-04 06:38:17 51°13.857 2°52.811 9 23 16.9 101840 48
2009-08-04 06:38:22 51°13.85 2°52.786 9.5 283 16.9 101840 48
2009-08-04 06:38:27 51°13.843 2°52.761 9.5 25 16.9 101840 48
2009-08-04 06:38:32 51°13.836 2°52.736 10.1 304 16.9 101840 48
2009-08-04 06:38:37 51°13.829 2°52.711 12.2 25 16.9 101830 48
2009-08-04 06:38:42 51°13.822 2°52.686 9.6 307 16.9 101830 48
2009-08-04 06:38:47 51°13.815 2°52.662 11.3 21 16.9 101840 48
2009-08-04 06:38:52 51°13.808 2°52.637 11.2 301 16.9 101840 48
2009-08-04 06:38:57 51°13.801 2°52.612 9.3 28 16.9 101840 49
2009-08-04 06:39:02 51°13.794 2°52.587 9.2 304 16.9 101840 49
2009-08-04 06:39:07 51°13.787 2°52.563 9.1 28 16.9 101840 49
2009-08-04 06:39:12 51°13.78 2°52.538 9.9 305 16.9 101840 49
2009-08-04 06:39:17 51°13.773 2°52.513 9.7 27 17 101840 48
2009-08-04 06:39:22 51°13.765 2°52.489 9.4 281 17 101840 48
2009-08-04 06:39:27 51°13.758 2°52.464 9.2 23 17 101840 49
2009-08-04 06:39:33 51°13.75 2°52.434 11.3 311 17 101840 49
2009-08-04 06:39:37 51°13.744 2°52.414 10.9 24 16.9 101840 49
2009-08-04 06:39:42 51°13.737 2°52.389 11.9 304 16.9 101840 49
2009-08-04 06:39:47 51°13.73 2°52.365 10.6 21 17 101840 49
2009-08-04 06:39:53 51°13.722 2°52.335 10.5 308 17 101840 49
2009-08-04 06:39:57 51°13.716 2°52.315 8.9 28 17 101840 49
2009-08-04 06:40:02 51°13.709 2°52.29 11 307 17 101840 49
2009-08-04 06:40:07 51°13.702 2°52.265 8.5 28 17 101840 49
2009-08-04 06:40:13 51°13.693 2°52.235 12.2 305 17 101840 49
2009-08-04 06:40:17 51°13.687 2°52.215 9.1 26 17 101840 49
2009-08-04 06:40:22 51°13.68 2°52.191 9.3 281 17 101840 49
2009-08-04 06:40:27 51°13.673 2°52.166 12.5 25 17 101840 49
2009-08-04 06:40:32 51°13.666 2°52.14 11.2 302 17 101840 49
2009-08-04 06:40:37 51°13.659 2°52.115 12 27 17 101840 48
2009-08-04 06:40:42 51°13.652 2°52.09 12.4 302 17 101840 48
2009-08-04 06:40:47 51°13.645 2°52.065 9.7 22 17 101840 49
2009-08-04 06:40:52 51°13.638 2°52.04 9.8 308 17 101840 49
2009-08-04 06:40:57 51°13.631 2°52.015 12.1 26 17 101830 49
2009-08-04 06:41:02 51°13.624 2°51.99 11.9 306 17 101830 49
2009-08-04 06:41:07 51°13.617 2°51.966 12.5 23 17 101840 48
2009-08-04 06:41:12 51°13.609 2°51.941 9.9 304 17 101840 48
2009-08-04 06:41:17 51°13.601 2°51.916 12 23 17 101840 49
2009-08-04 06:41:22 51°13.593 2°51.891 11.4 283 17 101840 49
2009-08-04 06:41:27 51°13.585 2°51.866 10.9 28 17 101840 49
2009-08-04 06:41:32 51°13.578 2°51.841 9.1 306 17 101840 49
2009-08-04 06:41:37 51°13.571 2°51.816 9.2 23 17.1 101840 50
2009-08-04 06:41:42 51°13.565 2°51.792 9.4 303 17.1 101840 50
2009-08-04 06:41:47 51°13.558 2°51.77 8.9 27 17.1 101840 50
2009-08-04 06:41:53 51°13.551 2°51.744 9.3 303 17.1 101840 50
2009-08-04 06:41:57 51°13.547 2°51.727 9.1 28 17.1 101840 48
2009-08-04 06:42:02 51°13.541 2°51.707 10.9 310 17.1 101840 48
2009-08-04 06:42:07 51°13.535 2°51.687 8.7 25 17.1 101840 49
2009-08-04 06:42:13 51°13.529 2°51.663 8 300 17.1 101840 49
2009-08-04 06:42:17 51°13.524 2°51.648 9.9 21 17.1 101840 49
2009-08-04 06:42:22 51°13.519 2°51.629 7.8 302 17.1 101840 49
2009-08-04 06:42:27 51°13.515 2°51.61 7.8 25 17.1 101840 48
2009-08-04 06:42:33 51°13.509 2°51.587 10.7 306 17.1 101840 48
2009-08-04 06:42:37 51°13.505 2°51.573 8.9 27 17.1 101840 48
2009-08-04 06:42:42 51°13.5 2°51.555 8.6 308 17.1 101840 48
2009-08-04 06:42:47 51°13.496 2°51.537 9.4 26 17.1 101840 49
2009-08-04 06:42:53 51°13.491 2°51.518 9.1 307 17.1 101840 49
2009-08-04 06:42:57 51°13.487 2°51.506 7.6 26 17.2 101840 50
2009-08-04 06:43:02 51°13.483 2°51.492 6.7 302 17.2 101840 50
2009-08-04 06:43:07 51°13.479 2°51.478 8.4 26 17.2 101840 50
2009-08-04 06:43:12 51°13.475 2°51.465 7.5 310 17.2 101840 50
2009-08-04 06:43:17 51°13.471 2°51.453 8.9 26 17.2 101840 49
2009-08-04 06:43:22 51°13.467 2°51.443 10.4 308 17.2 101840 49
2009-08-04 06:43:27 51°13.463 2°51.432 10.1 24 17.2 101840 49
2009-08-04 06:43:32 51°13.458 2°51.423 8.4 307 17.2 101840 49
2009-08-04 06:43:37 51°13.455 2°51.414 7.7 28 17.2 101840 49
2009-08-04 06:43:42 51°13.451 2°51.405 7.3 310 17.2 101840 49
2009-08-04 06:43:47 51°13.448 2°51.398 8.3 25 17.2 101840 49
2009-08-04 06:43:53 51°13.445 2°51.39 6.6 304 17.2 101840 49
2009-08-04 06:43:57 51°13.443 2°51.384 6.3 23 17.2 101840 49
2009-08-04 06:44:02 51°13.441 2°51.379 7.6 305 17.2 101840 49
2009-08-04 06:44:07 51°13.44 2°51.374 7.7 248 17.2 101840 48
2009-08-04 06:44:13 51°13.439 2°51.368 6.4 305 17.2 101840 48
2009-08-04 06:44:17 51°13.438 2°51.365 6.8 253 17.2 101850 48
2009-08-04 06:44:22 51°13.437 2°51.361 8.8 283 17.2 101850 48
2009-08-04 06:44:27 51°13.436 2°51.358 7.5 256 17.2 101850 49
2009-08-04 06:44:33 51°13.436 2°51.354 7.2 304 17.2 101850 49
2009-08-04 06:44:37 51°13.435 2°51.352 6.9 260 17.2 101850 49
2009-08-04 06:44:42 51°13.434 2°51.349 6 303 17.2 101850 49
2009-08-04 06:44:47 51°13.434 2°51.346 4.9 262 17.2 101850 50
2009-08-04 06:44:53 51°13.434 2°51.342 5.9 303 17.2 101850 50
2009-08-04 06:44:57 51°13.433 2°51.34 5.9 263 17.3 101850 48
2009-08-04 06:45:02 51°13.433 2°51.338 4.3 302 17.3 101850 48
2009-08-04 06:45:07 51°13.433 2°51.335 5.6 264 17.3 101850 50
2009-08-04 06:45:12 51°13.432 2°51.332 5 304 17.3 101850 50
2009-08-04 06:45:17 51°13.432 2°51.33 4.5 263 17.3 101860 50
2009-08-04 06:45:22 51°13.432 2°51.327 5.5 278 17.3 101860 50
2009-08-04 06:45:27 51°13.431 2°51.325 4.6 266 17.3 101850 48
2009-08-04 06:45:32 51°13.431 2°51.322 5.4 310 17.3 101850 48
2009-08-04 06:45:37 51°13.431 2°51.32 5.6 269 17.3 101850 48
2009-08-04 06:45:42 51°13.43 2°51.318 4.8 305 17.3 101850 48
2009-08-04 06:45:47 51°13.43 2°51.316 6.5 267 17.3 101850 48
2009-08-04 06:45:52 51°13.43 2°51.313 8 59 17.3 101850 48
2009-08-04 06:45:57 51°13.429 2°51.311 5.6 267 17.3 101850 50
2009-08-04 06:46:02 51°13.429 2°51.309 6.5 308 17.3 101850 50
2009-08-04 06:46:07 51°13.429 2°51.307 6 270 17.4 101860 50
2009-08-04 06:46:13 51°13.428 2°51.304 6.1 326 17.4 101860 50
2009-08-04 06:46:17 51°13.428 2°51.302 6.4 269 17.4 101850 48
2009-08-04 06:46:22 51°13.428 2°51.3 5.4 283 17.4 101850 48
2009-08-04 06:46:27 51°13.428 2°51.298 5.7 15 17.3 101860 48
2009-08-04 06:46:33 51°13.428 2°51.295 5.3 309 17.3 101860 48
2009-08-04 06:46:37 51°13.427 2°51.293 5.5 30 17.4 101850 49
2009-08-04 06:46:42 51°13.427 2°51.291 6.9 60 17.4 101850 49
2009-08-04 06:46:47 51°13.427 2°51.289 5.6 30 17.4 101860 50
2009-08-04 06:46:53 51°13.427 2°51.287 5.6 49 17.4 101860 50
2009-08-04 06:46:57 51°13.427 2°51.285 5.9 320 17.4 101860 50
2009-08-04 06:47:02 51°13.426 2°51.282 6.9 305 17.4 101860 50
2009-08-04 06:47:07 51°13.426 2°51.28 6.2 270 17.5 101850 49
2009-08-04 06:47:12 51°13.426 2°51.278 5.6 310 17.5 101850 49
2009-08-04 06:47:17 51°13.425 2°51.276 6 29 17.4 101860 49
2009-08-04 06:47:22 51°13.425 2°51.274 6.5 54 17.4 101860 49
2009-08-04 06:47:27 51°13.425 2°51.272 7.1 25 17.4 101860 49
2009-08-04 06:47:32 51°13.425 2°51.27 6.8 304 17.4 101860 49
2009-08-04 06:47:37 51°13.425 2°51.267 7.7 32 17.4 101850 48
2009-08-04 06:47:42 51°13.425 2°51.265 7.3 58 17.4 101850 48
2009-08-04 06:47:47 51°13.424 2°51.263 7.6 27 17.4 101850 49
2009-08-04 06:47:52 51°13.424 2°51.261 6.2 301 17.4 101850 49
2009-08-04 06:47:57 51°13.424 2°51.259 6.1 270 17.4 101860 50
2009-08-04 06:48:02 51°13.424 2°51.256 5.3 309 17.4 101860 50
2009-08-04 06:48:07 51°13.423 2°51.254 5.8 270 17.4 101860 48
2009-08-04 06:48:12 51°13.423 2°51.252 5.8 302 17.4 101860 48
2009-08-04 06:48:17 51°13.423 2°51.25 5 268 17.4 101860 49
2009-08-04 06:48:22 51°13.423 2°51.248 6.2 279 17.4 101860 49
2009-08-04 06:48:27 51°13.422 2°51.246 6.8 268 17.4 101850 48
2009-08-04 06:48:33 51°13.422 2°51.243 6.8 304 17.4 101850 48
2009-08-04 06:48:37 51°13.422 2°51.241 7.7 268 17.4 101850 49
2009-08-04 06:48:42 51°13.422 2°51.239 4.9 303 17.4 101850 49
2009-08-04 06:48:47 51°13.422 2°51.237 4.9 266 17.5 101850 49
2009-08-04 06:48:53 51°13.422 2°51.234 6.4 303 17.5 101850 49
2009-08-04 06:48:57 51°13.421 2°51.233 5.7 267 17.4 101850 50
2009-08-04 06:49:02 51°13.421 2°51.23 3.9 302 17.4 101850 50
2009-08-04 06:49:07 51°13.421 2°51.228 5.2 262 17.5 101850 49
2009-08-04 06:49:13 51°13.421 2°51.226 6.1 308 17.5 101850 49
2009-08-04 06:49:17 51°13.421 2°51.224 5.1 266 17.5 101850 49
2009-08-04 06:49:22 51°13.421 2°51.222 5.1 279 17.5 101850 49
2009-08-04 06:49:27 51°13.42 2°51.22 4.5 264 17.4 101850 49
2009-08-04 06:49:32 51°13.42 2°51.218 5.2 304 17.4 101850 49
2009-08-04 06:49:37 51°13.42 2°51.216 5.6 265 17.4 101850 48
2009-08-04 06:49:42 51°13.42 2°51.213 6.2 307 17.4 101850 48
2009-08-04 06:49:47 51°13.42 2°51.211 6.4 269 17.5 101850 48
2009-08-04 06:49:52 51°13.42 2°51.209 6 303 17.5 101850 48
2009-08-04 06:49:57 51°13.419 2°51.207 5.7 266 17.5 101850 49
2009-08-04 06:50:02 51°13.419 2°51.205 4.5 307 17.5 101850 49
2009-08-04 06:50:07 51°13.419 2°51.203 5.4 266 17.5 101850 50
2009-08-04 06:50:12 51°13.419 2°51.201 6.1 300 17.5 101850 50
2009-08-04 06:50:17 51°13.419 2°51.199 6.7 266 17.5 101850 49
2009-08-04 06:50:22 51°13.419 2°51.197 5.2 281 17.5 101850 49
2009-08-04 06:50:27 51°13.418 2°51.195 5.1 265 17.5 101850 49
2009-08-04 06:50:32 51°13.418 2°51.193 5.1 306 17.5 101850 49
2009-08-04 06:50:37 51°13.418 2°51.191 6.1 266 17.5 101850 49
2009-08-04 06:50:42 51°13.418 2°51.189 5 304 17.5 101850 49
2009-08-04 06:50:47 51°13.418 2°51.186 5.9 267 17.6 101850 48
2009-08-04 06:50:53 51°13.417 2°51.184 5.9 301 17.6 101850 48
2009-08-04 06:50:57 51°13.417 2°51.183 4.4 264 17.6 101850 48
2009-08-04 06:51:02 51°13.417 2°51.18 4.6 308 17.6 101850 48
2009-08-04 06:51:07 51°13.417 2°51.179 4.7 266 17.6 101850 48
2009-08-04 06:51:13 51°13.417 2°51.176 5 303 17.6 101850 48
2009-08-04 06:51:17 51°13.416 2°51.174 4.8 263 17.6 101850 49
2009-08-04 06:51:22 51°13.416 2°51.173 4.1 279 17.6 101850 49
2009-08-04 06:51:27 51°13.416 2°51.17 4.3 263 17.6 101850 49
2009-08-04 06:51:33 51°13.416 2°51.168 7.2 301 17.6 101850 49
2009-08-04 06:51:37 51°13.416 2°51.167 5.8 261 17.6 101850 49
2009-08-04 06:51:42 51°13.415 2°51.165 7.4 307 17.6 101850 49
2009-08-04 06:51:47 51°13.415 2°51.162 8.7 259 17.6 101850 49
2009-08-04 06:51:53 51°13.415 2°51.16 8 302 17.6 101850 49
2009-08-04 06:51:57 51°13.415 2°51.159 5.9 260 17.7 101850 49
2009-08-04 06:52:02 51°13.414 2°51.157 6.2 301 17.7 101850 49
2009-08-04 06:52:07 51°13.414 2°51.155 5.9 262 17.7 101850 49
2009-08-04 06:52:12 51°13.414 2°51.153 5.1 303 17.7 101850 49
2009-08-04 06:52:17 51°13.414 2°51.151 5.3 260 17.7 101850 50
2009-08-04 06:52:22 51°13.414 2°51.149 5.5 300 17.7 101850 50
2009-08-04 06:52:27 51°13.413 2°51.147 5.9 264 17.7 101850 50
2009-08-04 06:52:32 51°13.413 2°51.145 8.2 307 17.7 101850 50
2009-08-04 06:52:37 51°13.413 2°51.143 9 260 17.7 101850 48
2009-08-04 06:52:42 51°13.413 2°51.141 8.6 300 17.7 101850 48
2009-08-04 06:52:47 51°13.413 2°51.139 8.3 260 17.8 101850 50
2009-08-04 06:52:53 51°13.413 2°51.137 9.3 306 17.8 101850 50
2009-08-04 06:52:57 51°13.412 2°51.135 7.8 262 17.8 101850 50
2009-08-04 06:53:02 51°13.412 2°51.134 8.2 307 17.8 101850 50
2009-08-04 06:53:07 51°13.412 2°51.132 7.8 258 17.8 101850 49
2009-08-04 06:53:13 51°13.412 2°51.129 6.5 301 17.8 101850 49
2009-08-04 06:53:17 51°13.412 2°51.128 7.4 258 17.8 101850 50
2009-08-04 06:53:22 51°13.412 2°51.126 6.9 285 17.8 101850 50
2009-08-04 06:53:27 51°13.412 2°51.124 7.3 251 17.8 101860 49
2009-08-04 06:53:33 51°13.412 2°51.122 6.5 309 17.8 101860 49
2009-08-04 06:53:37 51°13.411 2°51.12 7.1 259 17.7 101860 48
2009-08-04 06:53:42 51°13.411 2°51.118 8 309 17.7 101860 48
2009-08-04 06:53:47 51°13.411 2°51.117 7.3 260 17.8 101850 48
2009-08-04 06:53:53 51°13.411 2°51.114 8.5 307 17.8 101850 48
2009-08-04 06:53:57 51°13.411 2°51.113 7.6 256 17.8 101850 49
2009-08-04 06:54:02 51°13.411 2°51.111 7.8 304 17.8 101850 49
2009-08-04 06:54:07 51°13.411 2°51.109 7.5 258 17.8 101860 50
2009-08-04 06:54:12 51°13.411 2°51.107 8.3 308 17.8 101860 50
2009-08-04 06:54:17 51°13.41 2°51.105 7.6 256 17.8 101850 48
2009-08-04 06:54:22 51°13.41 2°51.104 6.3 304 17.8 101850 48
2009-08-04 06:54:27 51°13.41 2°51.102 7.7 260 17.9 101850 50
2009-08-04 06:54:32 51°13.41 2°51.1 5.6 304 17.9 101850 50
2009-08-04 06:54:37 51°13.41 2°51.098 7.3 260 17.9 101850 49
2009-08-04 06:54:42 51°13.41 2°51.096 5.9 307 17.9 101850 49
2009-08-04 06:54:47 51°13.41 2°51.094 4.6 262 17.9 101850 49
2009-08-04 06:54:52 51°13.41 2°51.093 5.5 301 17.9 101850 49
2009-08-04 06:54:57 51°13.409 2°51.091 5.9 259 18 101850 50
2009-08-04 06:55:02 51°13.409 2°51.089 6.1 302 18 101850 50
2009-08-04 06:55:07 51°13.409 2°51.087 5 259 18 101860 49
2009-08-04 06:55:13 51°13.409 2°51.085 6 302 18 101860 49
2009-08-04 06:55:17 51°13.409 2°51.083 5.4 259 18 101860 49
2009-08-04 06:55:22 51°13.409 2°51.081 7.1 284 18 101860 49
2009-08-04 06:55:27 51°13.409 2°51.079 6.9 259 18 101860 48
2009-08-04 06:55:33 51°13.409 2°51.077 5.7 303 18 101860 48
2009-08-04 06:55:37 51°13.409 2°51.075 6.6 259 18 101850 50
2009-08-04 06:55:42 51°13.409 2°51.074 8.3 310 18 101850 50
2009-08-04 06:55:47 51°13.408 2°51.072 7.9 261 18.1 101850 49
2009-08-04 06:55:53 51°13.408 2°51.069 7.1 306 18.1 101850 49
2009-08-04 06:55:57 51°13.408 2°51.068 6.8 262 18.1 101850 50
2009-08-04 06:56:02 51°13.408 2°51.066 5.9 308 18.1 101850 50
2009-08-04 06:56:07 51°13.408 2°51.064 5.8 262 18.1 101860 49
2009-08-04 06:56:13 51°13.408 2°51.062 6.8 310 18.1 101860 49
2009-08-04 06:56:17 51°13.408 2°51.06 6.1 261 18.1 101860 49
2009-08-04 06:56:22 51°13.408 2°51.059 5.2 305 18.1 101860 49
2009-08-04 06:56:27 51°13.408 2°51.057 5.6 262 18.1 101860 49
2009-08-04 06:56:32 51°13.408 2°51.055 6.6 305 18.1 101860 49
2009-08-04 06:56:37 51°13.408 2°51.053 6.3 260 18 101860 48
2009-08-04 06:56:42 51°13.408 2°51.051 6 305 18 101860 48
2009-08-04 06:56:47 51°13.408 2°51.05 6.2 261 18 101860 48
2009-08-04 06:56:52 51°13.408 2°51.048 5.5 307 18 101860 48
2009-08-04 06:56:57 51°13.408 2°51.046 6.7 261 18 101860 48
2009-08-04 06:57:02 51°13.408 2°51.044 7.3 310 18 101860 48
2009-08-04 06:57:07 51°13.408 2°51.043 5.3 262 18 101860 48
2009-08-04 06:57:12 51°13.408 2°51.041 6.1 307 18 101860 48
2009-08-04 06:57:17 51°13.408 2°51.039 4.2 264 18 101860 49
2009-08-04 06:57:22 51°13.408 2°51.037 6.5 286 18 101860 49
2009-08-04 06:57:27 51°13.408 2°51.036 4 263 18 101860 48
2009-08-04 06:57:33 51°13.408 2°51.033 6.3 305 18 101860 48
2009-08-04 06:57:37 51°13.408 2°51.032 6.9 260 18 101860 48
2009-08-04 06:57:42 51°13.408 2°51.03 6.7 308 18 101860 48
2009-08-04 06:57:47 51°13.408 2°51.028 8 261 18.1 101860 48
2009-08-04 06:57:53 51°13.407 2°51.026 6.7 302 18.1 101860 48
2009-08-04 06:57:57 51°13.407 2°51.025 6.9 261 18.1 101860 48
2009-08-04 06:58:02 51°13.407 2°51.023 6.5 303 18.1 101860 48
2009-08-04 06:58:07 51°13.407 2°51.021 4.5 264 18.1 101860 49
2009-08-04 06:58:13 51°13.407 2°51.019 6.8 306 18.1 101860 49
2009-08-04 06:58:17 51°13.407 2°51.018 6.2 261 18.1 101860 48
2009-08-04 06:58:22 51°13.407 2°51.016 5.8 308 18.1 101860 48
2009-08-04 06:58:27 51°13.407 2°51.015 6.4 262 18.1 101860 49
2009-08-04 06:58:33 51°13.407 2°51.013 5.5 301 18.1 101860 49
2009-08-04 06:58:37 51°13.407 2°51.011 5.8 262 18.1 101860 49
2009-08-04 06:58:42 51°13.407 2°51.01 4.7 304 18.1 101860 49
2009-08-04 06:58:47 51°13.407 2°51.008 4.6 261 18.1 101860 49
2009-08-04 06:58:52 51°13.407 2°51.006 6.8 309 18.1 101860 49
2009-08-04 06:58:57 51°13.407 2°51.004 6.8 261 18.1 101860 48
2009-08-04 06:59:02 51°13.407 2°51.001 4.3 309 18.1 101860 48
2009-08-04 06:59:07 51°13.407 2°50.998 6.2 260 18.1 101860 48
2009-08-04 06:59:12 51°13.407 2°50.994 6.9 304 18.1 101860 48
2009-08-04 06:59:17 51°13.406 2°50.99 7.5 257 18.1 101860 49
2009-08-04 06:59:22 51°13.406 2°50.986 7.4 281 18.1 101860 49
2009-08-04 06:59:27 51°13.405 2°50.981 7.6 20 18.1 101860 49
2009-08-04 06:59:32 51°13.404 2°50.976 5.8 305 18.1 101860 49
2009-08-04 06:59:37 51°13.403 2°50.971 7 27 18.1 101860 48
2009-08-04 06:59:42 51°13.402 2°50.966 6.2 301 18.1 101860 48
2009-08-04 06:59:47 51°13.4 2°50.96 7.5 22 18.2 101860 49
2009-08-04 06:59:53 51°13.398 2°50.954 6.4 309 18.2 101860 49
2009-08-04 06:59:57 51°13.397 2°50.949 6.5 23 18.2 101860 48
2009-08-04 07:00:02 51°13.395 2°50.944 8 303 18.2 101860 48
2009-08-04 07:00:07 51°13.392 2°50.939 7.5 20 18.2 101850 50
2009-08-04 07:00:13 51°13.389 2°50.932 6.5 306 18.2 101850 50
2009-08-04 07:00:17 51°13.386 2°50.928 6.9 317 18.2 101860 50
2009-08-04 07:00:22 51°13.383 2°50.924 8.5 303 18.2 101860 50
2009-08-04 07:00:27 51°13.379 2°50.919 8.2 321 18.2 101850 49
2009-08-04 07:00:33 51°13.374 2°50.915 7.8 304 18.2 101850 49
2009-08-04 07:00:37 51°13.371 2°50.912 8.8 326 18.2 101850 49
2009-08-04 07:00:42 51°13.366 2°50.909 9 330 18.2 101850 49
2009-08-04 07:00:47 51°13.362 2°50.907 9.2 332 18.2 101850 49
2009-08-04 07:00:52 51°13.357 2°50.905 9.1 334 18.2 101850 49
2009-08-04 07:00:57 51°13.353 2°50.904 7.5 336 18.2 101850 49
2009-08-04 07:01:03 51°13.347 2°50.904 9.1 342 18.2 101850 49
2009-08-04 07:01:08 51°13.343 2°50.904 9 342 18.2 101850 48
2009-08-04 07:01:14 51°13.338 2°50.905 7.9 349 18.2 101850 48
2009-08-04 07:01:18 51°13.334 2°50.907 8.6 349 18.2 101850 48
2009-08-04 07:01:23 51°13.33 2°50.909 8.6 354 18.2 101850 48
2009-08-04 07:01:28 51°13.327 2°50.912 8 356 18.2 101850 48
2009-08-04 07:01:33 51°13.324 2°50.916 7 2 18.2 101850 48
2009-08-04 07:01:38 51°13.321 2°50.919 6.9 2 18.1 101850 48
2009-08-04 07:01:43 51°13.318 2°50.924 7.2 6 18.1 101850 48
2009-08-04 07:01:48 51°13.316 2°50.929 5.7 7 18.1 101850 48
2009-08-04 07:01:54 51°13.312 2°50.936 7.8 -999 18.1 101850 48
2009-08-04 07:01:58 51°13.311 2°50.941 7.5 1 18.1 101840 49
2009-08-04 07:02:04 51°13.307 2°50.949 9 358 18.1 101840 49
2009-08-04 07:02:08 51°13.304 2°50.955 8.2 354 18.1 101840 48
2009-08-04 07:02:14 51°13.299 2°50.963 8.9 351 18.1 101840 48
2009-08-04 07:02:18 51°13.296 2°50.967 8.7 351 18.1 101850 49
2009-08-04 07:02:24 51°13.29 2°50.972 8.8 346 18.1 101850 49
2009-08-04 07:02:29 51°13.286 2°50.975 9.9 345 18.1 101850 48
2009-08-04 07:02:34 51°13.281 2°50.978 8.1 344 18.1 101850 48
2009-08-04 07:02:38 51°13.277 2°50.979 9.1 341 18 101850 48
2009-08-04 07:02:43 51°13.272 2°50.98 9 341 18 101850 48
2009-08-04 07:02:49 51°13.267 2°50.981 8.9 339 18 101860 48
2009-08-04 07:02:54 51°13.262 2°50.981 7.9 338 18 101860 48
2009-08-04 07:02:58 51°13.259 2°50.981 8 337 18 101860 48
2009-08-04 07:03:03 51°13.254 2°50.98 7.2 334 18 101860 48
2009-08-04 07:03:08 51°13.25 2°50.979 7.4 333 18 101850 49
2009-08-04 07:03:14 51°13.245 2°50.977 7.8 331 18 101850 49
2009-08-04 07:03:18 51°13.242 2°50.976 7.7 329 18 101860 47
2009-08-04 07:03:23 51°13.238 2°50.974 8.7 327 18 101860 47
2009-08-04 07:03:28 51°13.234 2°50.972 7.4 328 18 101860 49
2009-08-04 07:03:33 51°13.23 2°50.969 8.6 327 18 101860 49
2009-08-04 07:03:38 51°13.227 2°50.966 7.4 326 18 101860 49
2009-08-04 07:03:43 51°13.224 2°50.964 7.6 323 18 101860 49
2009-08-04 07:03:48 51°13.222 2°50.961 7.2 322 18 101860 48
2009-08-04 07:03:53 51°13.219 2°50.959 7 320 18 101860 48
2009-08-04 07:03:58 51°13.218 2°50.956 6.2 319 18 101860 48
2009-08-04 07:04:04 51°13.216 2°50.954 6.1 320 18 101860 48
2009-08-04 07:04:08 51°13.215 2°50.952 7.1 317 18 101860 48
2009-08-04 07:04:14 51°13.214 2°50.949 6.1 316 18 101860 48
2009-08-04 07:04:18 51°13.213 2°50.948 7.1 29 18 101860 48
2009-08-04 07:04:24 51°13.213 2°50.946 5.8 40 18 101860 48
2009-08-04 07:04:29 51°13.212 2°50.944 6.1 24 18 101860 48
2009-08-04 07:04:34 51°13.211 2°50.943 6.3 231 18 101860 48
2009-08-04 07:04:38 51°13.211 2°50.941 7.2 25 18 101860 48
2009-08-04 07:04:44 51°13.21 2°50.939 6.7 235 18 101860 48
2009-08-04 07:04:49 51°13.21 2°50.937 6.8 27 18 101860 49
2009-08-04 07:04:54 51°13.209 2°50.935 7.2 237 18 101860 49
2009-08-04 07:04:58 51°13.209 2°50.934 7.5 30 18 101860 49
2009-08-04 07:05:04 51°13.209 2°50.932 6 238 18 101860 49
2009-08-04 07:05:09 51°13.208 2°50.93 7.5 26 18 101860 49
2009-08-04 07:05:14 51°13.208 2°50.928 6.5 237 18 101860 49
2009-08-04 07:05:18 51°13.207 2°50.927 7.5 23 18.1 101860 48
2009-08-04 07:05:23 51°13.207 2°50.925 6.6 240 18.1 101860 48
2009-08-04 07:05:28 51°13.207 2°50.923 6.1 21 18.1 101860 49
2009-08-04 07:05:34 51°13.206 2°50.921 5.3 240 18.1 101860 49
2009-08-04 07:05:38 51°13.206 2°50.92 5.8 24 18.1 101860 49
2009-08-04 07:05:43 51°13.205 2°50.918 7 240 18.1 101860 49
2009-08-04 07:05:48 51°13.205 2°50.916 6.4 24 18.1 101860 49
2009-08-04 07:05:53 51°13.205 2°50.914 7.1 247 18.1 101860 49
2009-08-04 07:05:58 51°13.205 2°50.912 6.3 22 18.1 101870 48
2009-08-04 07:06:03 51°13.205 2°50.91 7.2 252 18.1 101870 48
2009-08-04 07:06:08 51°13.204 2°50.909 7.2 251 18.1 101870 49
2009-08-04 07:06:14 51°13.204 2°50.906 7.1 252 18.1 101870 49
2009-08-04 07:06:18 51°13.203 2°50.905 7.7 19 18.1 101870 48
2009-08-04 07:06:24 51°13.203 2°50.903 8.4 253 18.1 101870 48
2009-08-04 07:06:28 51°13.203 2°50.901 8.5 253 18.2 101870 50
2009-08-04 07:06:34 51°13.202 2°50.899 7.9 253 18.2 101870 50
2009-08-04 07:06:38 51°13.202 2°50.898 7.9 254 18.2 101870 48
2009-08-04 07:06:44 51°13.202 2°50.895 8.5 256 18.2 101870 48
2009-08-04 07:06:49 51°13.202 2°50.893 8.3 257 18.2 101870 50
2009-08-04 07:06:54 51°13.201 2°50.891 7.1 255 18.2 101870 50
2009-08-04 07:06:58 51°13.201 2°50.89 7.1 258 18.2 101870 49
2009-08-04 07:07:03 51°13.201 2°50.888 7 257 18.2 101870 49
2009-08-04 07:07:09 51°13.201 2°50.886 8.4 260 18.2 101870 49
2009-08-04 07:07:14 51°13.201 2°50.883 8.5 261 18.2 101870 49
2009-08-04 07:07:18 51°13.2 2°50.882 5.8 262 18.2 101870 49
2009-08-04 07:07:23 51°13.2 2°50.88 8.7 260 18.2 101870 49
2009-08-04 07:07:29 51°13.2 2°50.878 6.9 261 18.2 101870 48
2009-08-04 07:07:34 51°13.2 2°50.876 6.8 259 18.2 101870 48
2009-08-04 07:07:38 51°13.199 2°50.874 7.3 262 18.2 101870 48
2009-08-04 07:07:43 51°13.199 2°50.872 6.7 259 18.2 101870 48
2009-08-04 07:07:48 51°13.199 2°50.87 7.1 260 18.2 101880 48
2009-08-04 07:07:54 51°13.199 2°50.868 7.2 261 18.2 101880 48
2009-08-04 07:07:58 51°13.199 2°50.867 5.9 260 18.2 101870 49
2009-08-04 07:08:03 51°13.199 2°50.865 6.4 260 18.2 101870 49
2009-08-04 07:08:08 51°13.198 2°50.863 6.4 260 18.2 101880 49
2009-08-04 07:08:13 51°13.198 2°50.861 7.4 260 18.2 101880 49
2009-08-04 07:08:18 51°13.198 2°50.859 7 261 18.2 101870 48
2009-08-04 07:08:23 51°13.198 2°50.857 6.1 260 18.2 101870 48
2009-08-04 07:08:28 51°13.197 2°50.855 7.7 261 18.2 101870 48
2009-08-04 07:08:34 51°13.197 2°50.853 6.5 260 18.2 101870 48
2009-08-04 07:08:38 51°13.197 2°50.851 6.8 261 18.2 101870 48
2009-08-04 07:08:44 51°13.197 2°50.849 6.4 260 18.2 101870 48
2009-08-04 07:08:48 51°13.197 2°50.847 6 260 18.2 101870 48
2009-08-04 07:08:54 51°13.196 2°50.845 5.7 260 18.2 101870 48
2009-08-04 07:08:58 51°13.196 2°50.844 4.6 264 18.2 101870 49
2009-08-04 07:09:03 51°13.196 2°50.842 4.6 308 18.2 101870 49
2009-08-04 07:09:09 51°13.196 2°50.839 5.3 263 18.2 101870 48
2009-08-04 07:09:14 51°13.196 2°50.838 5 262 18.2 101870 48
2009-08-04 07:09:18 51°13.195 2°50.836 5.1 261 18.3 101880 48
2009-08-04 07:09:23 51°13.195 2°50.834 5.4 263 18.3 101880 48
2009-08-04 07:09:29 51°13.195 2°50.832 4.5 265 18.3 101870 48
2009-08-04 07:09:34 51°13.195 2°50.83 5 267 18.3 101870 48
2009-08-04 07:09:38 51°13.194 2°50.828 5.2 270 18.3 101870 49
2009-08-04 07:09:43 51°13.194 2°50.826 5.2 267 18.3 101870 49
2009-08-04 07:09:48 51°13.194 2°50.824 5.4 267 18.3 101870 49
2009-08-04 07:09:54 51°13.194 2°50.822 5.8 266 18.3 101870 49
2009-08-04 07:09:58 51°13.194 2°50.821 5.6 266 18.4 101870 50
2009-08-04 07:10:03 51°13.194 2°50.819 5.1 268 18.4 101870 50
2009-08-04 07:10:08 51°13.193 2°50.817 5.5 267 18.4 101870 49
2009-08-04 07:10:13 51°13.193 2°50.816 5.2 264 18.4 101870 49
2009-08-04 07:10:18 51°13.193 2°50.814 5.4 266 18.3 101870 48
2009-08-04 07:10:23 51°13.193 2°50.812 4.4 263 18.3 101870 48
2009-08-04 07:10:28 51°13.193 2°50.809 4.5 262 18.3 101870 49
2009-08-04 07:10:33 51°13.193 2°50.806 4.4 266 18.3 101870 49
2009-08-04 07:10:38 51°13.193 2°50.803 5.7 261 18.3 101880 48
2009-08-04 07:10:43 51°13.193 2°50.799 7.2 260 18.3 101880 48
2009-08-04 07:10:48 51°13.193 2°50.795 6.8 262 18.3 101880 48
2009-08-04 07:10:54 51°13.193 2°50.789 6.1 252 18.3 101880 48
2009-08-04 07:10:58 51°13.193 2°50.784 6 251 18.3 101870 48
2009-08-04 07:11:04 51°13.192 2°50.777 7.2 252 18.3 101870 48
2009-08-04 07:11:08 51°13.192 2°50.772 5.9 251 18.3 101870 48
2009-08-04 07:11:14 51°13.191 2°50.764 7.8 247 18.3 101870 48
2009-08-04 07:11:18 51°13.191 2°50.759 7.5 248 18.3 101870 49
2009-08-04 07:11:24 51°13.19 2°50.749 6.1 244 18.3 101870 49
2009-08-04 07:11:29 51°13.188 2°50.741 7.3 27 18.4 101870 48
2009-08-04 07:11:34 51°13.186 2°50.731 7.8 244 18.4 101870 48
2009-08-04 07:11:38 51°13.185 2°50.723 6.2 22 18.4 101870 49
2009-08-04 07:11:43 51°13.182 2°50.711 7.8 239 18.4 101870 49
2009-08-04 07:11:49 51°13.179 2°50.697 6.4 29 18.4 101870 48
2009-08-04 07:11:54 51°13.176 2°50.684 6.7 237 18.4 101870 48
2009-08-04 07:11:58 51°13.174 2°50.673 8 23 18.4 101870 48
2009-08-04 07:12:03 51°13.17 2°50.659 7.6 235 18.4 101870 48
2009-08-04 07:12:08 51°13.166 2°50.643 8.6 30 18.4 101870 49
2009-08-04 07:12:14 51°13.161 2°50.625 9.1 36 18.4 101870 49
2009-08-04 07:12:18 51°13.157 2°50.612 9.3 28 18.4 101860 49
2009-08-04 07:12:23 51°13.152 2°50.596 10 32 18.4 101860 49
2009-08-04 07:12:28 51°13.146 2°50.579 11.2 19 18.4 101870 48
2009-08-04 07:12:33 51°13.14 2°50.562 9.2 37 18.4 101870 48
2009-08-04 07:12:38 51°13.134 2°50.544 11.1 28 18.4 101860 49
2009-08-04 07:12:43 51°13.127 2°50.525 11.9 32 18.4 101860 49
2009-08-04 07:12:48 51°13.119 2°50.505 10 25 18.4 101860 49
2009-08-04 07:12:53 51°13.112 2°50.486 11.9 36 18.4 101860 49
2009-08-04 07:12:58 51°13.103 2°50.465 10 27 18.4 101860 49
2009-08-04 07:13:04 51°13.093 2°50.44 10.3 37 18.4 101860 49
2009-08-04 07:13:08 51°13.086 2°50.423 12.2 26 18.4 101860 48
2009-08-04 07:13:14 51°13.076 2°50.398 9.9 39 18.4 101860 48
2009-08-04 07:13:18 51°13.069 2°50.381 12 315 18.4 101860 48
2009-08-04 07:13:24 51°13.058 2°50.355 11.4 316 18.4 101860 48
2009-08-04 07:13:29 51°13.049 2°50.333 11.6 315 18.4 101860 48
2009-08-04 07:13:34 51°13.04 2°50.311 12.5 316 18.4 101860 48
2009-08-04 07:13:38 51°13.032 2°50.294 12.6 315 18.4 101860 48
2009-08-04 07:13:43 51°13.023 2°50.272 12.2 40 18.4 101860 48
2009-08-04 07:13:49 51°13.013 2°50.245 12.3 317 18.4 101860 49
2009-08-04 07:13:54 51°13.004 2°50.222 11.8 317 18.4 101860 49
2009-08-04 07:13:58 51°12.997 2°50.204 12.4 315 18.4 101860 48
2009-08-04 07:14:03 51°12.988 2°50.182 12.4 320 18.4 101860 48
2009-08-04 07:14:09 51°12.978 2°50.155 13 315 18.5 101850 48
2009-08-04 07:14:14 51°12.969 2°50.133 10.5 315 18.5 101850 48
2009-08-04 07:14:18 51°12.962 2°50.114 10.5 316 18.4 101850 48
2009-08-04 07:14:23 51°12.953 2°50.092 12.5 317 18.4 101850 48
2009-08-04 07:14:28 51°12.944 2°50.069 10.4 316 18.4 101860 49
2009-08-04 07:14:34 51°12.933 2°50.042 10.4 39 18.4 101860 49
2009-08-04 07:14:38 51°12.926 2°50.024 10.3 25 18.4 101850 48
2009-08-04 07:14:43 51°12.918 2°50.001 9.8 33 18.4 101850 48
2009-08-04 07:14:48 51°12.909 2°49.979 11.3 22 18.4 101850 47
2009-08-04 07:14:54 51°12.899 2°49.951 11.8 315 18.4 101850 47
2009-08-04 07:14:58 51°12.892 2°49.933 12.4 25 18.4 101860 48
2009-08-04 07:15:03 51°12.884 2°49.91 12.4 37 18.4 101860 48
2009-08-04 07:15:08 51°12.876 2°49.887 12.1 23 18.4 101850 48
2009-08-04 07:15:14 51°12.865 2°49.859 12.9 36 18.4 101850 48
2009-08-04 07:15:18 51°12.859 2°49.841 12.7 21 18.4 101860 48
2009-08-04 07:15:24 51°12.849 2°49.813 10.3 36 18.4 101860 48
2009-08-04 07:15:28 51°12.842 2°49.795 11.8 25 18.4 101850 48
2009-08-04 07:15:34 51°12.832 2°49.768 10.5 33 18.4 101850 48
2009-08-04 07:15:38 51°12.825 2°49.75 11.4 25 18.4 101860 48
2009-08-04 07:15:44 51°12.814 2°49.723 11.6 35 18.4 101860 48
2009-08-04 07:15:49 51°12.806 2°49.7 11.4 23 18.4 101850 48
2009-08-04 07:15:54 51°12.797 2°49.677 11.6 38 18.4 101850 48
2009-08-04 07:15:58 51°12.791 2°49.659 11.3 315 18.4 101860 49
2009-08-04 07:16:03 51°12.783 2°49.635 11.7 31 18.4 101860 49
2009-08-04 07:16:09 51°12.773 2°49.608 10.4 20 18.4 101860 49
2009-08-04 07:16:14 51°12.764 2°49.585 12 38 18.4 101860 49
2009-08-04 07:16:18 51°12.757 2°49.566 12 22 18.4 101860 48
2009-08-04 07:16:23 51°12.749 2°49.543 9.8 316 18.4 101860 48
2009-08-04 07:16:28 51°12.741 2°49.52 10.3 22 18.4 101860 48
2009-08-04 07:16:34 51°12.73 2°49.493 10.5 37 18.4 101860 48
2009-08-04 07:16:38 51°12.723 2°49.474 12.4 27 18.3 101860 48
2009-08-04 07:16:43 51°12.715 2°49.451 11.5 39 18.3 101860 48
2009-08-04 07:16:48 51°12.707 2°49.427 10 28 18.3 101860 49
2009-08-04 07:16:54 51°12.697 2°49.4 11.6 32 18.3 101860 49
2009-08-04 07:16:58 51°12.69 2°49.382 12.1 25 18.3 101860 49
2009-08-04 07:17:03 51°12.681 2°49.359 9.7 41 18.3 101860 49
2009-08-04 07:17:08 51°12.673 2°49.335 11.8 27 18.3 101860 48
2009-08-04 07:17:13 51°12.665 2°49.312 11.6 34 18.3 101860 48
2009-08-04 07:17:18 51°12.656 2°49.29 11.6 23 18.3 101860 48
2009-08-04 07:17:23 51°12.647 2°49.267 9.6 36 18.3 101860 48
2009-08-04 07:17:28 51°12.639 2°49.244 9.5 28 18.3 101860 49
2009-08-04 07:17:34 51°12.628 2°49.217 10.9 35 18.3 101860 49
2009-08-04 07:17:38 51°12.621 2°49.199 9.3 26 18.3 101860 49
2009-08-04 07:17:44 51°12.611 2°49.172 11 33 18.3 101860 49
2009-08-04 07:17:48 51°12.604 2°49.153 9.4 26 18.3 101850 48
2009-08-04 07:17:54 51°12.594 2°49.126 9.1 35 18.3 101850 48
2009-08-04 07:17:58 51°12.587 2°49.107 11 317 18.3 101860 49
2009-08-04 07:18:04 51°12.577 2°49.08 11.2 315 18.3 101860 49
2009-08-04 07:18:09 51°12.569 2°49.056 9.3 315 18.3 101860 49
2009-08-04 07:18:14 51°12.561 2°49.033 8.9 39 18.3 101860 49
2009-08-04 07:18:18 51°12.554 2°49.014 9 315 18.3 101860 49
2009-08-04 07:18:23 51°12.546 2°48.99 8.3 316 18.3 101860 49
2009-08-04 07:18:29 51°12.537 2°48.963 10.5 316 18.3 101860 48
2009-08-04 07:18:34 51°12.528 2°48.939 10.6 32 18.3 101860 48
2009-08-04 07:18:38 51°12.522 2°48.921 8.8 316 18.3 101860 49
2009-08-04 07:18:43 51°12.513 2°48.898 9 31 18.3 101860 49
2009-08-04 07:18:48 51°12.505 2°48.875 8.6 25 18.3 101860 48
2009-08-04 07:18:54 51°12.494 2°48.848 8.5 33 18.3 101860 48
2009-08-04 07:18:58 51°12.487 2°48.83 9 26 18.3 101860 49
2009-08-04 07:19:03 51°12.479 2°48.807 11.1 34 18.3 101860 49
2009-08-04 07:19:08 51°12.471 2°48.783 9.3 26 18.3 101860 49
2009-08-04 07:19:14 51°12.461 2°48.756 9.6 34 18.3 101860 49
2009-08-04 07:19:18 51°12.454 2°48.738 11.9 21 18.3 101860 48
2009-08-04 07:19:23 51°12.445 2°48.714 10.9 33 18.3 101860 48
2009-08-04 07:19:28 51°12.437 2°48.691 9.4 20 18.3 101860 48
2009-08-04 07:19:33 51°12.429 2°48.668 12.5 32 18.3 101860 48
2009-08-04 07:19:38 51°12.42 2°48.645 12.3 26 18.3 101860 49
2009-08-04 07:19:43 51°12.412 2°48.622 12.2 35 18.3 101860 49
2009-08-04 07:19:48 51°12.404 2°48.599 11.5 23 18.3 101860 49
2009-08-04 07:19:54 51°12.393 2°48.572 11.1 33 18.3 101860 49
2009-08-04 07:19:58 51°12.386 2°48.554 9.1 24 18.3 101860 48
2009-08-04 07:20:04 51°12.376 2°48.527 11.1 34 18.3 101860 48
2009-08-04 07:20:08 51°12.369 2°48.509 9.3 24 18.3 101860 49
2009-08-04 07:20:14 51°12.358 2°48.482 11.9 316 18.3 101860 49
2009-08-04 07:20:18 51°12.351 2°48.464 10.2 315 18.3 101860 49
2009-08-04 07:20:23 51°12.342 2°48.441 10.5 39 18.3 101860 49
2009-08-04 07:20:29 51°12.332 2°48.414 10.5 29 18.4 101860 50
2009-08-04 07:20:34 51°12.323 2°48.392 11.5 315 18.4 101860 50
2009-08-04 07:20:38 51°12.316 2°48.374 11.4 316 18.4 101860 49
2009-08-04 07:20:43 51°12.307 2°48.352 11.1 316 18.4 101860 49
2009-08-04 07:20:49 51°12.296 2°48.325 10.8 315 18.4 101860 49
2009-08-04 07:20:54 51°12.288 2°48.302 10.9 317 18.4 101860 49
2009-08-04 07:20:58 51°12.281 2°48.284 12.5 316 18.4 101850 49
2009-08-04 07:21:03 51°12.272 2°48.261 10.2 38 18.4 101850 49
2009-08-04 07:21:08 51°12.264 2°48.238 11.8 26 18.4 101860 49
2009-08-04 07:21:14 51°12.253 2°48.211 9.5 316 18.4 101860 49
2009-08-04 07:21:18 51°12.246 2°48.193 9.7 25 18.4 101860 48
2009-08-04 07:21:23 51°12.237 2°48.17 10.8 316 18.4 101860 48
2009-08-04 07:21:28 51°12.229 2°48.147 11.7 317 18.4 101860 48
2009-08-04 07:21:34 51°12.219 2°48.12 9.9 37 18.4 101860 48
2009-08-04 07:21:38 51°12.213 2°48.101 9.8 315 18.4 101860 49
2009-08-04 07:21:43 51°12.204 2°48.078 12.2 315 18.4 101860 49
2009-08-04 07:21:48 51°12.196 2°48.055 9.7 27 18.4 101860 49
2009-08-04 07:21:53 51°12.188 2°48.032 11.6 38 18.4 101860 49
2009-08-04 07:21:58 51°12.179 2°48.009 11.2 24 18.4 101860 48
2009-08-04 07:22:04 51°12.169 2°47.982 11.4 315 18.4 101860 48
2009-08-04 07:22:08 51°12.162 2°47.963 10.2 25 18.4 101860 48
2009-08-04 07:22:14 51°12.152 2°47.936 11.2 32 18.4 101860 48
2009-08-04 07:22:18 51°12.145 2°47.918 11.1 24 18.4 101860 48
2009-08-04 07:22:24 51°12.135 2°47.89 8.9 33 18.4 101860 48
2009-08-04 07:22:29 51°12.126 2°47.867 9.3 316 18.5 101860 49
2009-08-04 07:22:34 51°12.118 2°47.844 9.5 316 18.5 101860 49
2009-08-04 07:22:38 51°12.112 2°47.825 11.2 22 18.5 101860 49
2009-08-04 07:22:44 51°12.102 2°47.797 11 35 18.5 101860 49
2009-08-04 07:22:49 51°12.094 2°47.773 11.6 25 18.5 101860 48
2009-08-04 07:22:54 51°12.086 2°47.75 11.9 35 18.5 101860 48
2009-08-04 07:22:58 51°12.08 2°47.731 10.4 26 18.5 101860 49
2009-08-04 07:23:03 51°12.072 2°47.708 12.4 36 18.5 101860 49
2009-08-04 07:23:09 51°12.062 2°47.68 12.3 22 18.5 101860 48
2009-08-04 07:23:14 51°12.054 2°47.656 10.5 315 18.5 101860 48
2009-08-04 07:23:18 51°12.048 2°47.637 10.3 26 18.5 101860 48
2009-08-04 07:23:23 51°12.04 2°47.614 12.3 39 18.5 101860 48
2009-08-04 07:23:28 51°12.033 2°47.59 10.4 25 18.5 101850 48
2009-08-04 07:23:34 51°12.024 2°47.561 9.9 40 18.5 101850 48
2009-08-04 07:23:38 51°12.018 2°47.542 11.8 29 18.5 101860 48
2009-08-04 07:23:43 51°12.011 2°47.518 9.4 38 18.5 101860 48
2009-08-04 07:23:48 51°12.004 2°47.494 12 23 18.5 101850 49
2009-08-04 07:23:54 51°11.997 2°47.464 9.6 35 18.5 101850 49
2009-08-04 07:23:58 51°11.992 2°47.445 11.2 24 18.6 101850 49
2009-08-04 07:24:03 51°11.986 2°47.42 11.3 33 18.6 101850 49
2009-08-04 07:24:08 51°11.98 2°47.395 10 24 18.6 101860 49
2009-08-04 07:24:14 51°11.974 2°47.364 12 38 18.6 101860 49
2009-08-04 07:24:18 51°11.97 2°47.344 9.8 29 18.6 101860 49
2009-08-04 07:24:24 51°11.964 2°47.314 11.7 33 18.6 101860 49
2009-08-04 07:24:28 51°11.96 2°47.294 11 26 18.6 101860 48
2009-08-04 07:24:34 51°11.954 2°47.263 11.1 37 18.6 101860 48
2009-08-04 07:24:38 51°11.95 2°47.243 10.8 23 18.6 101860 49
2009-08-04 07:24:44 51°11.945 2°47.212 9.4 234 18.6 101860 49
2009-08-04 07:24:49 51°11.94 2°47.187 8.8 26 18.6 101860 48
2009-08-04 07:24:54 51°11.935 2°47.161 10.5 233 18.6 101860 48
2009-08-04 07:24:58 51°11.931 2°47.141 8.8 25 18.6 101860 48
2009-08-04 07:25:04 51°11.926 2°47.11 9.4 35 18.6 101860 48
2009-08-04 07:25:09 51°11.921 2°47.085 10.7 24 18.6 101850 49
2009-08-04 07:25:14 51°11.917 2°47.059 10.3 38 18.6 101850 49
2009-08-04 07:25:18 51°11.913 2°47.039 8.7 26 18.6 101850 48
2009-08-04 07:25:23 51°11.909 2°47.013 9.2 32 18.6 101850 48
2009-08-04 07:25:29 51°11.903 2°46.982 8.8 24 18.6 101860 48
2009-08-04 07:25:34 51°11.899 2°46.956 8.3 34 18.6 101860 48
2009-08-04 07:25:38 51°11.895 2°46.936 9.6 22 18.6 101860 49
2009-08-04 07:25:43 51°11.891 2°46.91 8.1 39 18.6 101860 49
2009-08-04 07:25:48 51°11.886 2°46.884 9.7 23 18.6 101860 49
2009-08-04 07:25:54 51°11.88 2°46.853 9.5 34 18.6 101860 49
2009-08-04 07:25:58 51°11.877 2°46.833 8.6 27 18.7 101860 48
2009-08-04 07:26:03 51°11.872 2°46.807 8.5 40 18.7 101860 48
2009-08-04 07:26:08 51°11.867 2°46.782 10.6 27 18.7 101860 49
2009-08-04 07:26:13 51°11.862 2°46.756 11.1 34 18.7 101860 49
2009-08-04 07:26:18 51°11.856 2°46.73 9.2 24 18.7 101860 49
2009-08-04 07:26:23 51°11.851 2°46.704 11.2 34 18.7 101860 49
2009-08-04 07:26:28 51°11.846 2°46.679 9.8 27 18.7 101860 49
2009-08-04 07:26:34 51°11.84 2°46.648 9.7 34 18.7 101860 49
2009-08-04 07:26:38 51°11.835 2°46.628 9.6 21 18.6 101860 49
2009-08-04 07:26:44 51°11.829 2°46.597 10.7 33 18.6 101860 49
2009-08-04 07:26:48 51°11.825 2°46.576 10.4 27 18.7 101860 49
2009-08-04 07:26:54 51°11.819 2°46.545 9 32 18.7 101860 49
2009-08-04 07:26:58 51°11.815 2°46.525 8.8 22 18.7 101860 49
2009-08-04 07:27:04 51°11.809 2°46.494 10.4 31 18.7 101860 49
2009-08-04 07:27:09 51°11.803 2°46.469 11.1 26 18.7 101860 49
2009-08-04 07:27:14 51°11.798 2°46.443 9.8 41 18.7 101860 49
2009-08-04 07:27:18 51°11.794 2°46.423 9.9 25 18.7 101860 48
2009-08-04 07:27:23 51°11.789 2°46.397 11.6 40 18.7 101860 48
2009-08-04 07:27:29 51°11.782 2°46.367 10.5 24 18.7 101860 48
2009-08-04 07:27:34 51°11.777 2°46.341 9 36 18.7 101860 48
2009-08-04 07:27:38 51°11.773 2°46.321 10.9 25 18.7 101860 49
2009-08-04 07:27:43 51°11.767 2°46.295 10.7 35 18.7 101860 49
2009-08-04 07:27:49 51°11.761 2°46.265 10.7 25 18.7 101860 48
2009-08-04 07:27:54 51°11.755 2°46.239 8.5 38 18.7 101860 48
2009-08-04 07:27:58 51°11.751 2°46.219 10.8 26 18.7 101860 49
2009-08-04 07:28:03 51°11.746 2°46.193 11 38 18.7 101860 49
2009-08-04 07:28:08 51°11.74 2°46.168 10.6 22 18.7 101860 49
2009-08-04 07:28:13 51°11.735 2°46.143 10.4 37 18.7 101860 49
2009-08-04 07:28:18 51°11.729 2°46.117 10.7 26 18.6 101860 48
2009-08-04 07:28:23 51°11.724 2°46.092 8.7 35 18.6 101860 48
2009-08-04 07:28:28 51°11.719 2°46.066 10.4 23 18.7 101860 49
2009-08-04 07:28:33 51°11.713 2°46.041 10.6 40 18.7 101860 49
2009-08-04 07:28:38 51°11.708 2°46.015 10.1 26 18.7 101860 49
2009-08-04 07:28:44 51°11.701 2°45.985 10.2 32 18.7 101860 49
2009-08-04 07:28:48 51°11.697 2°45.965 8.5 25 18.7 101860 49
2009-08-04 07:28:54 51°11.69 2°45.934 11.1 35 18.7 101860 49
2009-08-04 07:28:58 51°11.686 2°45.914 9.1 26 18.7 101860 48
2009-08-04 07:29:04 51°11.679 2°45.883 10 38 18.7 101860 48
2009-08-04 07:29:08 51°11.675 2°45.863 10 22 18.7 101860 49
2009-08-04 07:29:14 51°11.669 2°45.832 9.2 35 18.7 101860 49
2009-08-04 07:29:18 51°11.664 2°45.812 10.6 27 18.7 101860 49
2009-08-04 07:29:24 51°11.658 2°45.781 10.7 38 18.7 101860 49
2009-08-04 07:29:29 51°11.652 2°45.756 8.5 27 18.7 101860 49
2009-08-04 07:29:34 51°11.647 2°45.731 9.1 38 18.7 101860 49
2009-08-04 07:29:38 51°11.643 2°45.71 11.1 27 18.7 101860 50
2009-08-04 07:29:43 51°11.637 2°45.685 10.8 32 18.7 101860 50
2009-08-04 07:29:49 51°11.631 2°45.654 9.3 21 18.7 101860 48
2009-08-04 07:29:54 51°11.625 2°45.629 12 34 18.7 101860 48
2009-08-04 07:29:58 51°11.621 2°45.608 11.3 22 18.6 101860 49
2009-08-04 07:30:03 51°11.616 2°45.583 9 228 18.6 101860 49
2009-08-04 07:30:08 51°11.61 2°45.558 8.7 29 18.7 101860 49
2009-08-04 07:30:14 51°11.604 2°45.527 11 35 18.7 101860 49
2009-08-04 07:30:18 51°11.599 2°45.507 10.5 26 18.6 101860 48
2009-08-04 07:30:23 51°11.594 2°45.482 8.5 41 18.6 101860 48
2009-08-04 07:30:28 51°11.588 2°45.456 8.5 22 18.6 101860 49
2009-08-04 07:30:34 51°11.581 2°45.426 10.2 38 18.6 101860 49
2009-08-04 07:30:38 51°11.577 2°45.406 10 22 18.6 101860 49
2009-08-04 07:30:43 51°11.571 2°45.381 8.4 37 18.6 101860 49
2009-08-04 07:30:48 51°11.566 2°45.355 8.6 22 18.6 101860 48
2009-08-04 07:30:53 51°11.56 2°45.33 8.6 35 18.6 101860 48
2009-08-04 07:30:58 51°11.555 2°45.304 9 28 18.6 101860 50
2009-08-04 07:31:04 51°11.549 2°45.274 10.5 33 18.6 101860 50
2009-08-04 07:31:08 51°11.544 2°45.253 9.8 20 18.6 101860 49
2009-08-04 07:31:14 51°11.538 2°45.222 11.6 35 18.6 101860 49
2009-08-04 07:31:18 51°11.534 2°45.202 11.5 28 18.6 101860 49
2009-08-04 07:31:24 51°11.527 2°45.171 11.4 37 18.6 101860 49
2009-08-04 07:31:29 51°11.522 2°45.146 11.7 25 18.6 101860 49
2009-08-04 07:31:34 51°11.517 2°45.12 9.6 33 18.6 101860 49
2009-08-04 07:31:38 51°11.513 2°45.1 9.4 21 18.6 101860 49
2009-08-04 07:31:44 51°11.506 2°45.07 11.6 36 18.6 101860 49
2009-08-04 07:31:49 51°11.501 2°45.044 9.6 27 18.6 101860 49
2009-08-04 07:31:54 51°11.496 2°45.019 9.2 35 18.6 101860 49
2009-08-04 07:31:58 51°11.491 2°44.998 10.9 27 18.6 101860 49
2009-08-04 07:32:03 51°11.486 2°44.973 10.9 34 18.6 101860 49
2009-08-04 07:32:09 51°11.48 2°44.942 11.2 25 18.6 101860 49
2009-08-04 07:32:14 51°11.475 2°44.917 8.8 39 18.6 101860 49
2009-08-04 07:32:18 51°11.47 2°44.897 8.6 26 18.6 101860 48
2009-08-04 07:32:23 51°11.465 2°44.871 10 38 18.6 101860 48
2009-08-04 07:32:29 51°11.459 2°44.841 8.7 29 18.6 101860 49
2009-08-04 07:32:34 51°11.453 2°44.815 10.2 38 18.6 101860 49
2009-08-04 07:32:38 51°11.449 2°44.795 9.9 26 18.6 101860 49
2009-08-04 07:32:43 51°11.444 2°44.769 9.8 35 18.6 101860 49
2009-08-04 07:32:48 51°11.438 2°44.744 10.2 28 18.6 101860 49
2009-08-04 07:32:54 51°11.432 2°44.714 8.5 40 18.6 101860 49
2009-08-04 07:32:58 51°11.427 2°44.694 10.4 27 18.6 101860 50
2009-08-04 07:33:03 51°11.421 2°44.669 8.8 38 18.6 101860 50
2009-08-04 07:33:08 51°11.416 2°44.643 9 22 18.6 101860 50
2009-08-04 07:33:14 51°11.409 2°44.613 11.1 38 18.6 101860 50
2009-08-04 07:33:18 51°11.405 2°44.592 9.1 26 18.6 101860 50
2009-08-04 07:33:24 51°11.399 2°44.562 10.8 34 18.6 101860 50
2009-08-04 07:33:28 51°11.394 2°44.542 10.9 27 18.7 101860 49
2009-08-04 07:33:34 51°11.388 2°44.511 10.7 34 18.7 101860 49
2009-08-04 07:33:38 51°11.384 2°44.491 9.2 26 18.6 101860 49
2009-08-04 07:33:44 51°11.377 2°44.46 12 36 18.6 101860 49
2009-08-04 07:33:49 51°11.372 2°44.435 9.9 26 18.6 101860 50
2009-08-04 07:33:54 51°11.366 2°44.41 9.4 38 18.6 101860 50
2009-08-04 07:33:58 51°11.362 2°44.39 11.1 24 18.6 101860 49
2009-08-04 07:34:03 51°11.356 2°44.365 11.3 32 18.6 101860 49
2009-08-04 07:34:09 51°11.35 2°44.334 11 26 18.6 101860 49
2009-08-04 07:34:14 51°11.345 2°44.309 11 38 18.6 101860 49
2009-08-04 07:34:18 51°11.341 2°44.289 10.8 23 18.6 101850 49
2009-08-04 07:34:23 51°11.336 2°44.263 8.7 232 18.6 101850 49
2009-08-04 07:34:29 51°11.33 2°44.232 10.7 25 18.6 101860 49
2009-08-04 07:34:34 51°11.326 2°44.207 10.5 36 18.6 101860 49
2009-08-04 07:34:38 51°11.322 2°44.186 10.5 23 18.6 101860 49
2009-08-04 07:34:43 51°11.317 2°44.161 10.4 39 18.6 101860 49
2009-08-04 07:34:48 51°11.312 2°44.135 10.7 29 18.6 101860 49
2009-08-04 07:34:54 51°11.306 2°44.105 10.3 35 18.6 101860 49
2009-08-04 07:34:58 51°11.303 2°44.084 10.2 28 18.6 101860 49
2009-08-04 07:35:03 51°11.298 2°44.058 10 35 18.6 101860 49
2009-08-04 07:35:08 51°11.294 2°44.033 9.4 30 18.6 101860 50
2009-08-04 07:35:14 51°11.289 2°44.002 8.4 233 18.6 101860 50
2009-08-04 07:35:18 51°11.286 2°43.981 8.5 26 18.6 101860 49
2009-08-04 07:35:23 51°11.282 2°43.955 8.5 31 18.6 101860 49
2009-08-04 07:35:28 51°11.278 2°43.929 8.3 20 18.6 101860 49
2009-08-04 07:35:34 51°11.273 2°43.898 8.7 37 18.6 101860 49
2009-08-04 07:35:38 51°11.27 2°43.877 8.2 21 18.6 101860 50
2009-08-04 07:35:44 51°11.266 2°43.846 9.3 233 18.6 101860 50
2009-08-04 07:35:48 51°11.263 2°43.825 10.8 28 18.7 101860 50
2009-08-04 07:35:54 51°11.26 2°43.794 10 235 18.7 101860 50
2009-08-04 07:35:58 51°11.257 2°43.773 9.8 25 18.7 101860 49
2009-08-04 07:36:04 51°11.253 2°43.741 9.9 234 18.7 101860 49
2009-08-04 07:36:09 51°11.25 2°43.715 10.2 26 18.7 101860 49
2009-08-04 07:36:14 51°11.247 2°43.689 9.9 36 18.7 101860 49
2009-08-04 07:36:18 51°11.244 2°43.668 7.9 23 18.6 101850 50
2009-08-04 07:36:24 51°11.241 2°43.637 9.6 35 18.6 101850 50
2009-08-04 07:36:29 51°11.237 2°43.611 10.2 22 18.6 101850 48
2009-08-04 07:36:34 51°11.234 2°43.585 8.2 32 18.6 101850 48
2009-08-04 07:36:38 51°11.232 2°43.564 10.1 22 18.7 101860 50
2009-08-04 07:36:43 51°11.229 2°43.538 7.9 232 18.7 101860 50
2009-08-04 07:36:48 51°11.226 2°43.512 9.4 26 18.7 101850 50
2009-08-04 07:36:54 51°11.221 2°43.481 7.9 37 18.7 101850 50
2009-08-04 07:36:58 51°11.219 2°43.461 9.8 28 18.7 101860 49
2009-08-04 07:37:03 51°11.216 2°43.434 9 34 18.7 101860 49
2009-08-04 07:37:08 51°11.213 2°43.409 9.3 27 18.7 101860 49
2009-08-04 07:37:14 51°11.209 2°43.377 8 233 18.7 101860 49
2009-08-04 07:37:18 51°11.207 2°43.357 7.9 26 18.7 101860 48
2009-08-04 07:37:23 51°11.205 2°43.331 8.5 33 18.7 101860 48
2009-08-04 07:37:28 51°11.202 2°43.305 9.2 28 18.7 101860 50
2009-08-04 07:37:33 51°11.2 2°43.278 10.1 235 18.7 101860 50
2009-08-04 07:37:38 51°11.199 2°43.252 9.6 22 18.7 101860 49
2009-08-04 07:37:43 51°11.197 2°43.226 9.1 234 18.7 101860 49
2009-08-04 07:37:48 51°11.195 2°43.2 7.7 24 18.7 101860 49
2009-08-04 07:37:54 51°11.193 2°43.169 8.7 34 18.7 101860 49
2009-08-04 07:37:58 51°11.192 2°43.148 7.7 24 18.7 101860 49
2009-08-04 07:38:04 51°11.19 2°43.116 7.6 235 18.7 101860 49
2009-08-04 07:38:08 51°11.189 2°43.095 7.7 22 18.7 101860 49
2009-08-04 07:38:14 51°11.187 2°43.064 8 32 18.7 101860 49
2009-08-04 07:38:18 51°11.186 2°43.043 7.7 20 18.7 101860 49
2009-08-04 07:38:24 51°11.184 2°43.012 9.1 33 18.7 101860 49
2009-08-04 07:38:29 51°11.183 2°42.986 9.1 26 18.7 101860 50
2009-08-04 07:38:34 51°11.182 2°42.96 7.6 234 18.7 101860 50
2009-08-04 07:38:38 51°11.18 2°42.939 8.8 23 18.7 101860 50
2009-08-04 07:38:43 51°11.179 2°42.914 7.4 32 18.7 101860 50
2009-08-04 07:38:49 51°11.177 2°42.884 7 22 18.7 101860 50
2009-08-04 07:38:54 51°11.175 2°42.859 7.4 235 18.7 101860 50
2009-08-04 07:38:58 51°11.174 2°42.839 9 26 18.7 101860 50
2009-08-04 07:39:03 51°11.172 2°42.815 8 35 18.7 101860 50
2009-08-04 07:39:08 51°11.17 2°42.79 8.1 24 18.8 101860 49
2009-08-04 07:39:14 51°11.168 2°42.761 9.2 235 18.8 101860 49
2009-08-04 07:39:18 51°11.167 2°42.742 9.5 25 18.8 101860 50
2009-08-04 07:39:23 51°11.165 2°42.717 9.2 31 18.8 101860 50
2009-08-04 07:39:28 51°11.163 2°42.693 8.7 24 18.8 101860 50
2009-08-04 07:39:34 51°11.161 2°42.665 9.2 237 18.8 101860 50
2009-08-04 07:39:38 51°11.16 2°42.645 9 26 18.8 101860 49
2009-08-04 07:39:43 51°11.158 2°42.623 7.1 239 18.8 101860 49
2009-08-04 07:39:48 51°11.156 2°42.601 7.3 29 18.8 101860 49
2009-08-04 07:39:53 51°11.155 2°42.581 8.5 241 18.8 101860 49
2009-08-04 07:39:58 51°11.153 2°42.561 7 25 18.8 101860 50
2009-08-04 07:40:04 51°11.152 2°42.539 6.8 244 18.8 101860 50
2009-08-04 07:40:08 51°11.151 2°42.525 8.1 26 18.7 101860 50
2009-08-04 07:40:14 51°11.149 2°42.505 6 241 18.7 101860 50
2009-08-04 07:40:18 51°11.148 2°42.492 6.2 27 18.7 101860 49
2009-08-04 07:40:24 51°11.147 2°42.474 5.6 243 18.7 101860 49
2009-08-04 07:40:29 51°11.145 2°42.459 7.1 244 18.8 101860 50
2009-08-04 07:40:34 51°11.144 2°42.444 7.2 244 18.8 101860 50
2009-08-04 07:40:38 51°11.143 2°42.433 7 244 18.8 101870 49
2009-08-04 07:40:44 51°11.142 2°42.417 7.3 244 18.8 101870 49
2009-08-04 07:40:49 51°11.141 2°42.404 5.8 24 18.8 101860 50
2009-08-04 07:40:54 51°11.139 2°42.391 5.8 246 18.8 101860 50
2009-08-04 07:40:58 51°11.139 2°42.382 5.8 246 18.8 101870 50
2009-08-04 07:41:03 51°11.137 2°42.369 6.5 245 18.8 101870 50
2009-08-04 07:41:09 51°11.136 2°42.355 6.4 246 18.8 101870 49
2009-08-04 07:41:14 51°11.135 2°42.344 5.6 246 18.8 101870 49
2009-08-04 07:41:18 51°11.134 2°42.334 6.3 247 18.8 101870 50
2009-08-04 07:41:23 51°11.133 2°42.323 4.4 248 18.8 101870 50
2009-08-04 07:41:28 51°11.131 2°42.312 4.7 21 18.8 101870 50
2009-08-04 07:41:34 51°11.13 2°42.298 7 247 18.8 101870 50
2009-08-04 07:41:38 51°11.129 2°42.289 5.5 247 18.8 101870 50
2009-08-04 07:41:43 51°11.128 2°42.278 6.7 250 18.8 101870 50
2009-08-04 07:41:48 51°11.127 2°42.268 6.6 249 18.8 101870 49
2009-08-04 07:41:54 51°11.126 2°42.255 6.4 251 18.8 101870 49
2009-08-04 07:41:58 51°11.126 2°42.246 6.3 250 18.8 101870 49
2009-08-04 07:42:03 51°11.125 2°42.236 5.9 249 18.8 101870 49
2009-08-04 07:42:08 51°11.124 2°42.226 5.6 249 18.9 101870 49
2009-08-04 07:42:14 51°11.123 2°42.215 6.3 250 18.9 101870 49
2009-08-04 07:42:18 51°11.122 2°42.207 5.1 251 18.8 101870 50
2009-08-04 07:42:24 51°11.121 2°42.196 6.2 251 18.8 101870 50
2009-08-04 07:42:28 51°11.121 2°42.189 6.3 251 18.9 101870 50
2009-08-04 07:42:34 51°11.119 2°42.178 5.9 251 18.9 101870 50
2009-08-04 07:42:38 51°11.119 2°42.171 6.1 253 18.9 101870 49
2009-08-04 07:42:44 51°11.118 2°42.161 6.4 251 18.9 101870 49
2009-08-04 07:42:49 51°11.117 2°42.153 6.7 249 18.9 101870 50
2009-08-04 07:42:54 51°11.116 2°42.145 6 251 18.9 101870 50
2009-08-04 07:42:58 51°11.115 2°42.139 5.5 250 18.9 101870 50
2009-08-04 07:43:04 51°11.115 2°42.13 5.1 251 18.9 101870 50
2009-08-04 07:43:09 51°11.114 2°42.123 6.3 248 18.9 101870 51
2009-08-04 07:43:14 51°11.113 2°42.117 5.3 253 18.9 101870 51
2009-08-04 07:43:18 51°11.112 2°42.113 5.3 251 18.9 101870 50
2009-08-04 07:43:23 51°11.111 2°42.108 4.9 251 18.9 101870 50
2009-08-04 07:43:29 51°11.111 2°42.103 6 253 18.9 101870 49
2009-08-04 07:43:34 51°11.11 2°42.099 5.6 250 18.9 101870 49
2009-08-04 07:43:38 51°11.109 2°42.096 5.3 252 18.9 101870 49
2009-08-04 07:43:43 51°11.109 2°42.093 5.1 254 18.9 101870 49
2009-08-04 07:43:48 51°11.109 2°42.09 6.6 255 18.9 101870 49
2009-08-04 07:43:54 51°11.108 2°42.087 5.6 258 18.9 101870 49
2009-08-04 07:43:58 51°11.108 2°42.086 4.6 260 18.9 101870 49
2009-08-04 07:44:03 51°11.108 2°42.084 6 255 18.9 101870 49
2009-08-04 07:44:08 51°11.107 2°42.082 5.7 256 18.9 101870 50
2009-08-04 07:44:14 51°11.107 2°42.08 6.1 257 18.9 101870 50
2009-08-04 07:44:18 51°11.107 2°42.078 5.9 258 18.9 101870 50
2009-08-04 07:44:23 51°11.107 2°42.076 6.2 257 18.9 101870 50
2009-08-04 07:44:28 51°11.106 2°42.075 6.3 255 18.9 101870 49
2009-08-04 07:44:34 51°11.106 2°42.072 5.9 255 18.9 101870 49
2009-08-04 07:44:38 51°11.106 2°42.071 6.1 257 18.9 101870 51
2009-08-04 07:44:44 51°11.106 2°42.069 5.1 255 18.9 101870 51
2009-08-04 07:44:48 51°11.106 2°42.067 5.3 258 19 101880 51
2009-08-04 07:44:54 51°11.106 2°42.065 6.1 258 19 101880 51
2009-08-04 07:44:58 51°11.105 2°42.063 5.3 257 19 101870 51
2009-08-04 07:45:04 51°11.105 2°42.061 5.6 255 19 101870 51